X  SluitMETAR luchtvaart weer gegevens      EHGG Eelde

Temperatuur

24°C Temperatuur

16°C Dauwpunt

61% Vochtigheid



Wind

21 KM/U

13 MPH

 6 M/S

11 KTS



220°
Zuid West
Huidig weer

Thunderstorm Thunderstorm
Luchtdruk 1008.92 (hPa) - 29.79 (in)
Zicht 6.2 (mi) - 10 (km)
Vliegveld
Vliegveld code EHGG

Locatie Eelde 20 (km)

Metar:
EHGG 201725Z AUTO 22011KT 9999 TS FEW030CB SCT033 24/16 Q1009 TEMPO 23015G30KT 4000 TSRA SCT030CB

Tijd: 20-07-2019 19:25